Time;durP1;ratioP1;P1;durP2;ratioP2;P2;SDS_P1;SDS_P2;PMS_P1;PMS_P2;Temp;Humidity;BMP_temperature;BMP_pressure;BME280_temperature;BME280_humidity;BME280_pressure;Samples;Min_cycle;Max_cycle;Signal;HPM_P1;HPM_P2
2023/09/04 00:02:17;;;;;;;3.88;2.70;;;;;;;8.28;100.00;101630.94;4954877;28;20055;-61
2023/09/04 00:04:43;;;;;;;6.38;3.38;;;;;;;8.12;100.00;101608.09;4954350;28;20130;-60
2023/09/04 00:07:10;;;;;;;5.72;2.97;;;;;;;7.95;100.00;101589.03;4954714;28;20122;-62
2023/09/04 00:09:38;;;;;;;4.95;2.60;;;;;;;7.94;100.00;101577.50;4954850;28;20047;-60
2023/09/04 00:12:05;;;;;;;6.82;3.00;;;;;;;7.87;100.00;101578.94;4954913;28;20098;-61
2023/09/04 00:14:32;;;;;;;8.57;3.20;;;;;;;7.61;100.00;101539.09;4951990;28;20400;-60
2023/09/04 00:16:58;;;;;;;6.55;3.45;;;;;;;7.78;100.00;101547.59;4973810;28;20101;-60
2023/09/04 00:19:25;;;;;;;4.20;2.65;;;;;;;7.66;100.00;101547.59;4973551;28;20050;-60
2023/09/04 00:21:52;;;;;;;4.57;3.00;;;;;;;6.22;100.00;101321.34;4973227;28;20051;-61
2023/09/04 00:24:20;;;;;;;3.67;2.80;;;;;;;6.27;100.00;101345.00;4973800;28;20050;-60
2023/09/04 00:26:47;;;;;;;6.28;2.90;;;;;;;6.19;100.00;101340.25;4973513;28;20141;-60
2023/09/04 00:29:13;;;;;;;7.85;3.42;;;;;;;4.30;100.00;101039.47;4973907;28;20038;-62
2023/09/04 00:31:40;;;;;;;4.47;3.13;;;;;;;3.74;100.00;100940.91;4973222;28;20491;-60
2023/09/04 00:34:06;;;;;;;5.20;2.78;;;;;;;4.22;100.00;101009.16;4956196;28;20093;-60
2023/09/04 00:36:33;;;;;;;4.85;3.35;;;;;;;4.34;100.00;101030.31;4972686;28;20105;-61
2023/09/04 00:38:59;;;;;;;3.30;2.80;;;;;;;4.04;100.00;100996.25;4972538;28;20047;-61
2023/09/04 00:41:26;;;;;;;7.13;3.10;;;;;;;3.04;100.00;100842.53;4973428;28;20097;-60
2023/09/04 00:43:52;;;;;;;5.65;3.30;;;;;;;2.28;100.00;100713.69;4972870;28;20462;-61
2023/09/04 00:46:19;;;;;;;4.63;2.60;;;;;;;2.18;100.00;100693.13;4972267;28;20050;-61
2023/09/04 00:48:47;;;;;;;7.47;3.13;;;;;;;2.25;100.00;100701.50;4972433;28;20480;-61
2023/09/04 00:51:14;;;;;;;4.60;2.90;;;;;;;1.99;100.00;100660.09;4972331;28;20513;-60
2023/09/04 00:53:41;;;;;;;3.83;2.45;;;;;;;0.81;100.00;100476.03;4973425;28;20463;-60
2023/09/04 00:56:13;;;;;;;5.15;2.60;;;;;;;0.37;100.00;100399.84;4972353;28;20051;-61
2023/09/04 00:58:40;;;;;;;8.60;2.80;;;;;;;0.10;100.00;100357.66;4971982;28;20495;-61
2023/09/04 01:01:06;;;;;;;3.45;2.75;;;;;;;0.38;100.00;100391.81;4973003;28;20046;-61
2023/09/04 01:03:33;;;;;;;5.55;2.47;;;;;;;0.83;100.00;100468.84;4972837;28;20059;-60
2023/09/04 01:09:53;;;;;;;3.42;2.50;;;;;;;-0.48;100.00;100273.53;4972073;28;20053;-61
2023/09/04 01:12:24;;;;;;;5.13;3.08;;;;;;;-1.93;100.00;100044.22;4972430;28;20479;-61
2023/09/04 01:14:55;;;;;;;10.85;3.45;;;;;;;-3.10;100.00;99850.19;4971984;28;20112;-61
2023/09/04 01:17:23;;;;;;;6.72;2.78;;;;;;;-3.23;100.00;99833.56;4971997;28;20055;-61
2023/09/04 01:19:49;;;;;;;5.10;2.97;;;;;;;-6.44;100.00;99317.88;4971511;28;20074;-61
2023/09/04 01:22:17;;;;;;;3.63;2.78;;;;;;;-5.74;100.00;99420.88;4972660;28;20121;-61
2023/09/04 01:24:46;;;;;;;5.47;3.20;;;;;;;-6.31;100.00;99338.91;4971820;28;20502;-61
2023/09/04 01:27:27;;;;;;;7.57;2.70;;;;;;;-6.70;100.00;99268.03;4970876;28;20043;-60
2023/09/04 01:30:21;;;;;;;4.05;2.58;;;;;;;-5.75;100.00;99411.34;4971457;28;20070;-61
2023/09/04 01:32:58;;;;;;;6.25;3.08;;;;;;;-5.05;100.00;99533.63;4971331;28;20098;-61
2023/09/04 01:35:27;;;;;;;7.40;3.25;;;;;;;-7.23;100.00;99187.59;4970236;28;20134;-61
2023/09/04 01:37:54;;;;;;;8.30;3.70;;;;;;;-7.67;100.00;99124.00;4971169;28;20495;-60
2023/09/04 01:40:20;;;;;;;6.25;3.13;;;;;;;-11.21;100.00;98542.06;4970756;28;20102;-62
2023/09/04 01:42:47;;;;;;;7.22;3.15;;;;;;;-12.67;100.00;98301.06;4971847;28;20118;-61
2023/09/04 01:45:13;;;;;;;7.05;3.35;;;;;;;-12.09;100.00;98392.13;4970583;28;20042;-65
2023/09/04 01:47:40;;;;;;;4.22;3.15;;;;;;;-13.82;100.00;98117.41;4972101;28;20098;-65
2023/09/04 01:50:07;;;;;;;6.95;3.20;;;;;;;-14.27;100.00;98043.97;4972848;28;20058;-65
2023/09/04 01:52:33;;;;;;;4.47;3.05;;;;;;;-17.50;100.00;97519.03;4972702;28;20050;-65
2023/09/04 01:55:00;;;;;;;4.90;3.38;;;;;;;-17.04;100.00;97602.41;4972342;28;20043;-67
2023/09/04 01:57:26;;;;;;;6.90;2.90;;;;;;;-14.63;100.00;97992.41;4972010;28;20050;-64
2023/09/04 01:59:54;;;;;;;7.32;3.50;;;;;;;-15.18;100.00;97912.63;4972451;28;20418;-64
2023/09/04 02:02:20;;;;;;;6.28;3.10;;;;;;;-16.56;100.00;97692.69;4972298;28;20098;-66
2023/09/04 02:04:47;;;;;;;7.40;3.33;;;;;;;-20.93;100.00;96981.28;4972227;28;20063;-63
2023/09/04 02:07:13;;;;;;;9.93;3.70;;;;;;;-23.45;100.00;96573.81;4972378;28;20054;-65
2023/09/04 02:09:40;;;;;;;4.30;2.92;;;;;;;-28.74;100.00;95718.59;4971971;28;20047;-65
2023/09/04 02:12:07;;;;;;;5.50;3.10;;;;;;;-37.95;100.00;94242.00;4972588;28;20047;-65
2023/09/04 02:14:33;;;;;;;5.75;3.47;;;;;;;-45.14;100.00;93109.34;4971407;28;20066;-64
2023/09/04 02:17:00;;;;;;;7.32;3.28;;;;;;;-55.95;100.00;91421.75;4971900;28;20491;-65
2023/09/04 02:19:27;;;;;;;3.55;3.10;;;;;;;-52.64;100.00;91946.63;4972056;28;20054;-66
2023/09/04 02:21:54;;;;;;;5.63;2.80;;;;;;;-53.88;100.00;91746.94;4971753;28;20039;-63
2023/09/04 02:24:21;;;;;;;7.28;3.33;;;;;;;-58.96;100.00;90954.72;4971805;28;20046;-61
2023/09/04 02:26:47;;;;;;;6.85;3.40;;;;;;;-62.99;100.00;90336.47;4971619;28;20050;-61
2023/09/04 02:29:14;;;;;;;6.43;3.50;;;;;;;-61.23;100.00;90608.00;4971715;28;20464;-60
2023/09/04 02:31:42;;;;;;;5.10;3.00;;;;;;;-117.59;100.00;82237.94;4971257;28;20509;-60
2023/09/04 02:34:09;;;;;;;7.53;3.30;;;;;;;-121.93;100.00;81615.81;4970222;28;20075;-60
2023/09/04 02:36:36;;;;;;;4.75;3.42;;;;;;;-149.70;100.00;77791.03;4970804;28;20075;-61
2023/09/04 02:39:02;;;;;;;5.80;3.45;;;;;;;-149.70;100.00;77789.00;4971677;28;20047;-60
2023/09/04 02:41:29;;;;;;;5.80;3.35;;;;;;;-149.70;100.00;77789.00;4971313;28;20082;-61
2023/09/04 02:43:55;;;;;;;6.00;3.47;;;;;;;-139.94;100.00;79111.22;4970552;28;20114;-62
2023/09/04 02:46:23;;;;;;;4.70;3.33;;;;;;;-149.70;100.00;77793.06;4971035;28;20062;-61
2023/09/04 02:48:49;;;;;;;5.47;3.10;;;;;;;-149.70;100.00;77793.06;4971037;28;20108;-62
2023/09/04 02:51:16;;;;;;;5.65;3.92;;;;;;;-149.70;100.00;77789.00;4971485;28;20074;-60
2023/09/04 02:53:43;;;;;;;8.38;3.67;;;;;;;-149.70;100.00;77786.97;4970257;28;20063;-62
2023/09/04 02:56:10;;;;;;;10.43;3.70;;;;;;;-149.70;100.00;77793.06;4970797;28;20062;-60
2023/09/04 02:58:37;;;;;;;7.55;3.65;;;;;;;-149.70;100.00;77791.03;4971176;28;20058;-60
2023/09/04 03:01:03;;;;;;;5.35;3.80;;;;;;;-149.70;100.00;77797.13;4969940;28;20066;-61
2023/09/04 03:03:30;;;;;;;13.38;3.97;;;;;;;-149.70;100.00;77801.19;4969579;28;20097;-60
2023/09/04 03:05:59;;;;;;;12.38;3.90;;;;;;;-149.70;100.00;77799.16;4968089;28;20061;-61
2023/09/04 03:08:25;;;;;;;6.38;3.72;;;;;;;-149.70;100.00;77805.28;4971305;28;20443;-61
2023/09/04 03:10:52;;;;;;;6.68;4.05;;;;;;;-149.70;100.00;77807.31;4971048;28;20098;-61
2023/09/04 03:13:18;;;;;;;7.00;3.80;;;;;;;-149.70;100.00;77803.22;4971047;28;20043;-60
2023/09/04 03:15:45;;;;;;;7.05;3.60;;;;;;;-149.70;100.00;77805.28;4971001;28;20046;-62
2023/09/04 03:18:12;;;;;;;6.18;3.72;;;;;;;-149.70;100.00;77817.47;4970580;28;20050;-60
2023/09/04 03:20:38;;;;;;;7.72;3.63;;;;;;;-149.70;100.00;77825.59;4973051;28;20051;-60
2023/09/04 03:23:05;;;;;;;6.13;3.55;;;;;;;-149.70;100.00;77825.59;4974469;28;20039;-60
2023/09/04 03:25:33;;;;;;;5.68;3.65;;;;;;;-149.70;100.00;77833.75;4974496;28;20110;-60
2023/09/04 03:27:59;;;;;;;7.97;3.72;;;;;;;-149.70;100.00;77837.81;4974602;28;20074;-60
2023/09/04 03:30:26;;;;;;;5.88;3.90;;;;;;;-149.70;100.00;77837.81;4974048;28;20070;-62
2023/09/04 03:32:52;;;;;;;8.85;4.70;;;;;;;-149.70;100.00;77825.59;4974291;28;20050;-60
2023/09/04 03:35:19;;;;;;;5.03;4.00;;;;;;;-149.70;100.00;77833.75;4970010;28;20154;-60
2023/09/04 03:37:46;;;;;;;5.50;3.72;;;;;;;-149.70;100.00;77829.69;4955840;28;20054;-60
2023/09/04 03:40:24;;;;;;;7.60;3.88;;;;;;;-149.70;100.00;77839.84;4955263;28;20110;-61
2023/09/04 03:42:51;;;;;;;19.52;4.22;;;;;;;-149.70;100.00;77839.84;4962310;28;20072;-61
2023/09/04 03:45:19;;;;;;;6.85;4.07;;;;;;;-149.70;100.00;77843.91;4974957;28;20047;-60
2023/09/04 03:47:46;;;;;;;5.47;3.70;;;;;;;-149.70;100.00;77837.81;4974386;28;20726;-64
2023/09/04 03:50:13;;;;;;;6.70;4.25;;;;;;;-149.70;100.00;77839.84;4974426;28;20066;-63
2023/09/04 03:52:41;;;;;;;7.35;4.07;;;;;;;-149.70;100.00;77835.78;4974598;28;20410;-63
2023/09/04 03:55:11;;;;;;;5.55;3.90;;;;;;;-149.70;100.00;77831.72;4974198;28;20462;-62
2023/09/04 03:57:42;;;;;;;7.35;4.32;;;;;;;-149.70;100.00;77833.75;4974145;28;20046;-63
2023/09/04 04:00:16;;;;;;;12.20;4.28;;;;;;;-149.70;100.00;77856.13;4974212;28;20070;-63
2023/09/04 04:02:46;;;;;;;6.30;4.32;;;;;;;-149.70;100.00;77850.00;4974519;28;20051;-62
2023/09/04 04:05:15;;;;;;;7.25;3.63;;;;;;;-149.70;100.00;77852.06;4973741;28;20043;-64
2023/09/04 04:07:42;;;;;;;14.02;5.43;;;;;;;-149.70;100.00;77858.16;4974840;28;20047;-63
2023/09/04 04:10:09;;;;;;;10.45;4.72;;;;;;;-149.70;100.00;77864.25;4974245;28;20137;-66
2023/09/04 04:12:36;;;;;;;10.70;4.80;;;;;;;-149.70;100.00;77866.28;4956375;28;20459;-66
2023/09/04 04:15:07;;;;;;;16.08;4.57;;;;;;;-149.70;100.00;77870.34;4973670;28;20097;-66
2023/09/04 04:17:35;;;;;;;13.15;4.53;;;;;;;-149.70;100.00;77880.53;4973944;28;20452;-65
2023/09/04 04:20:12;;;;;;;10.43;4.65;;;;;;;-149.70;100.00;77880.53;4956790;28;20043;-64
2023/09/04 04:22:40;;;;;;;5.65;4.28;;;;;;;-149.70;100.00;77882.56;4973506;28;20054;-65
2023/09/04 04:25:07;;;;;;;8.32;4.38;;;;;;;-149.70;100.00;77878.50;4974151;28;20047;-65
2023/09/04 04:27:34;;;;;;;6.25;4.38;;;;;;;-149.70;100.00;77878.50;4973347;28;20423;-64
2023/09/04 04:30:02;;;;;;;6.60;4.63;;;;;;;-149.70;100.00;77878.50;4956270;28;20514;-67
2023/09/04 04:32:29;;;;;;;8.20;4.90;;;;;;;-149.70;100.00;77870.34;4972500;28;20154;-64
2023/09/04 04:34:55;;;;;;;9.00;5.05;;;;;;;-149.70;100.00;77868.31;4973758;28;20514;-65
2023/09/04 04:37:22;;;;;;;9.00;5.13;;;;;;;-149.70;100.00;77874.44;4973631;28;20074;-66
2023/09/04 04:39:51;;;;;;;18.00;5.03;;;;;;;-149.70;100.00;77880.53;4974218;28;20081;-65
2023/09/04 04:42:17;;;;;;;6.35;5.07;;;;;;;-149.70;100.00;77874.44;4973381;28;20082;-65
2023/09/04 04:44:44;;;;;;;16.42;5.53;;;;;;;-149.70;100.00;77870.34;4973331;28;20070;-66
2023/09/04 04:47:10;;;;;;;9.23;5.15;;;;;;;-149.70;100.00;77874.44;4973628;28;20046;-65
2023/09/04 04:49:37;;;;;;;12.10;5.20;;;;;;;-149.70;100.00;77878.50;4973126;28;20118;-65
2023/09/04 04:52:04;;;;;;;15.35;8.25;;;;;;;-149.70;100.00;77876.47;4973257;28;20038;-66
2023/09/04 04:54:35;;;;;;;15.18;8.38;;;;;;;-149.70;100.00;77872.38;4973553;28;20059;-65
2023/09/04 04:57:02;;;;;;;36.45;16.50;;;;;;;-149.70;100.00;77876.47;4973386;28;20047;-65
2023/09/04 04:59:28;;;;;;;15.25;7.72;;;;;;;-149.70;100.00;77870.34;4973806;28;20047;-65
2023/09/04 05:01:56;;;;;;;9.73;5.90;;;;;;;-149.70;100.00;77868.31;4973091;28;20093;-65
2023/09/04 05:04:22;;;;;;;9.27;6.20;;;;;;;-149.70;100.00;77862.22;4972822;28;20047;-64
2023/09/04 05:06:49;;;;;;;14.15;6.38;;;;;;;-149.70;100.00;77866.28;4974013;28;20137;-65
2023/09/04 05:09:16;;;;;;;10.18;6.13;;;;;;;-149.70;100.00;77870.34;4973776;28;20051;-66
2023/09/04 05:11:42;;;;;;;12.48;5.63;;;;;;;-149.70;100.00;77864.25;4955428;28;20088;-65
2023/09/04 05:14:09;;;;;;;14.88;6.22;;;;;;;-149.70;100.00;77868.31;4972753;28;21526;-64
2023/09/04 05:16:35;;;;;;;12.23;5.88;;;;;;;-149.70;100.00;77864.25;4972872;28;20066;-65
2023/09/04 05:19:02;;;;;;;16.42;6.22;;;;;;;-149.70;100.00;77858.16;4973044;28;20483;-64
2023/09/04 05:21:29;;;;;;;9.95;5.70;;;;;;;-149.70;100.00;77862.22;4972420;28;20232;-64
2023/09/04 05:24:00;;;;;;;11.75;5.60;;;;;;;-149.70;100.00;77862.22;4972891;28;20418;-65
2023/09/04 05:26:27;;;;;;;11.70;5.75;;;;;;;-149.70;100.00;77854.09;4972607;28;20050;-66
2023/09/04 05:28:53;;;;;;;8.32;5.65;;;;;;;-149.70;100.00;77850.00;4973524;28;20466;-64
2023/09/04 05:31:20;;;;;;;20.75;6.20;;;;;;;-149.70;100.00;77845.94;4973279;28;20049;-64
2023/09/04 05:33:50;;;;;;;13.75;5.80;;;;;;;-149.70;100.00;77845.94;4973132;28;20051;-65
2023/09/04 05:36:17;;;;;;;8.52;5.63;;;;;;;-149.70;100.00;77845.94;4973742;28;20047;-65
2023/09/04 05:38:43;;;;;;;9.00;5.18;;;;;;;-149.70;100.00;77833.75;4972886;28;20053;-64
2023/09/04 05:41:10;;;;;;;11.63;5.43;;;;;;;-149.70;100.00;77829.69;4972380;28;20055;-67
2023/09/04 05:43:36;;;;;;;12.07;5.88;;;;;;;-149.70;100.00;77817.47;4972357;28;20062;-66
2023/09/04 05:46:03;;;;;;;21.67;9.95;;;;;;;-149.70;100.00;77817.47;4973065;28;20054;-65
2023/09/04 05:48:31;;;;;;;17.83;8.88;;;;;;;-149.70;100.00;77811.38;4971836;28;20050;-65
2023/09/04 05:50:58;;;;;;;13.68;6.93;;;;;;;-149.70;100.00;77803.22;4972773;28;20101;-66
2023/09/04 05:53:24;;;;;;;12.82;5.70;;;;;;;-149.70;100.00;77793.06;4973177;28;20043;-64
2023/09/04 05:56:09;;;;;;;10.85;5.45;;;;;;;-149.70;100.00;77768.66;4971724;28;20051;-64
2023/09/04 05:58:43;;;;;;;13.85;5.88;;;;;;;-149.70;100.00;77758.50;4972821;28;20054;-64
2023/09/04 06:01:11;;;;;;;13.63;5.70;;;;;;;-149.70;100.00;77760.53;4972902;28;20051;-66
2023/09/04 06:03:42;;;;;;;13.45;6.10;;;;;;;-149.70;100.00;77764.59;4973265;28;20071;-65
2023/09/04 06:06:09;;;;;;;10.35;4.18;;;;;;;-149.70;100.00;77742.22;4972313;28;20050;-64
2023/09/04 06:08:37;;;;;;;11.30;5.50;;;;;;;-149.70;100.00;77738.16;4973241;28;20050;-63
2023/09/04 06:11:04;;;;;;;10.13;5.70;;;;;;;-149.70;100.00;77719.84;4955268;28;20047;-65
2023/09/04 06:13:31;;;;;;;14.95;6.78;;;;;;;-149.70;100.00;77705.59;4955114;28;20462;-66
2023/09/04 06:16:00;;;;;;;47.25;12.00;;;;;;;-149.70;100.00;77701.53;4972622;28;20466;-64
2023/09/04 06:18:29;;;;;;;47.50;10.65;;;;;;;-149.70;100.00;77683.22;4972172;28;20067;-64
2023/09/04 06:20:56;;;;;;;22.35;6.38;;;;;;;-149.70;100.00;77664.94;4954889;28;20046;-64
2023/09/04 06:23:23;;;;;;;14.10;6.05;;;;;;;-149.70;100.00;77646.63;4972576;28;20047;-66
2023/09/04 06:25:50;;;;;;;11.80;5.13;;;;;;;-77.68;100.00;87933.72;4972139;28;20414;-63
2023/09/04 06:28:17;;;;;;;12.77;5.97;;;;;;;-26.38;100.00;95928.25;4972573;28;20090;-66
2023/09/04 06:30:45;;;;;;;28.13;6.40;;;;;;;-4.99;100.00;99387.66;4972459;28;20109;-65
2023/09/04 06:33:12;;;;;;;12.63;5.28;;;;;;;2.37;100.00;100576.22;4955722;28;20124;-64
2023/09/04 06:35:38;;;;;;;10.73;5.25;;;;;;;4.38;100.00;100884.03;4972224;28;20046;-66
2023/09/04 06:38:05;;;;;;;12.35;5.03;;;;;;;6.63;100.00;101234.69;4972208;28;20073;-66
2023/09/04 06:40:32;;;;;;;14.25;5.18;;;;;;;9.21;100.00;101628.59;4972582;28;20047;-66
2023/09/04 06:42:59;;;;;;;10.00;5.32;;;;;;;10.35;100.00;101769.00;4972386;28;20050;-64
2023/09/04 06:45:26;;;;;;;11.73;5.85;;;;;;;11.39;100.00;101939.75;4970597;28;20395;-66
2023/09/04 06:47:53;;;;;;;10.05;4.95;;;;;;;12.39;100.00;102048.16;4971149;28;20175;-65
2023/09/04 06:50:19;;;;;;;12.73;5.20;;;;;;;12.99;100.00;102119.94;4972510;28;20507;-64
2023/09/04 06:52:46;;;;;;;13.57;5.13;;;;;;;13.56;100.00;102145.97;4972320;28;20105;-64
2023/09/04 06:55:13;;;;;;;14.30;6.03;;;;;;;13.83;100.00;102172.19;4985967;28;20051;-65
2023/09/04 06:57:41;;;;;;;13.90;5.32;;;;;;;14.34;100.00;102188.06;4971217;28;20101;-64
2023/09/04 07:00:10;;;;;;;14.23;5.65;;;;;;;14.89;100.00;102204.28;4971392;28;20050;-64
2023/09/04 07:02:41;;;;;;;14.98;5.18;;;;;;;15.27;100.00;102215.78;4971793;28;20054;-65
2023/09/04 07:05:08;;;;;;;13.32;5.20;;;;;;;15.60;100.00;102216.91;4970628;28;20102;-61
2023/09/04 07:07:37;;;;;;;11.00;4.70;;;;;;;16.20;100.00;102222.44;4986045;28;20051;-61
2023/09/04 07:10:05;;;;;;;9.48;4.00;;;;;;;16.73;100.00;102223.19;4971380;28;20126;-60
2023/09/04 07:12:34;;;;;;;9.02;3.83;;;;;;;17.32;100.00;102232.97;4971447;28;20526;-60
2023/09/04 07:15:02;;;;;;;6.72;3.35;;;;;;;17.91;100.00;102237.41;4971085;28;20062;-63
2023/09/04 07:17:29;;;;;;;8.82;3.28;;;;;;;18.24;100.00;102235.50;4972391;28;20054;-63
2023/09/04 07:19:55;;;;;;;5.03;2.60;;;;;;;18.23;100.00;102229.22;4973136;28;20158;-63
2023/09/04 07:22:22;;;;;;;5.47;2.60;;;;;;;18.88;100.00;102222.66;4972453;28;20043;-66
2023/09/04 07:24:49;;;;;;;20.10;3.67;;;;;;;18.79;100.00;102227.28;4972899;28;20050;-65
2023/09/04 07:27:16;;;;;;;5.13;3.13;;;;;;;19.32;100.00;102223.94;4972773;28;20046;-64
2023/09/04 07:29:42;;;;;;;7.40;2.90;;;;;;;19.41;100.00;102228.25;4972289;28;20098;-63
2023/09/04 07:32:09;;;;;;;10.27;3.00;;;;;;;20.56;100.00;102227.97;4971697;28;20039;-63
2023/09/04 07:34:36;;;;;;;10.65;3.28;;;;;;;21.18;97.72;102230.19;4972072;28;20057;-63
2023/09/04 07:37:02;;;;;;;4.65;2.60;;;;;;;21.33;89.40;102224.69;4971236;28;20054;-65
2023/09/04 07:39:29;;;;;;;5.82;2.28;;;;;;;21.59;86.88;102221.31;4971836;28;20109;-64
2023/09/04 07:41:56;;;;;;;9.18;2.40;;;;;;;22.16;81.28;102209.38;4971219;28;20113;-65
2023/09/04 07:44:23;;;;;;;9.07;2.40;;;;;;;22.51;75.38;102218.41;4970872;28;20058;-64
2023/09/04 07:46:49;;;;;;;4.22;1.73;;;;;;;22.88;70.80;102213.50;4971540;28;20130;-65
2023/09/04 07:49:19;;;;;;;4.72;2.53;;;;;;;22.76;69.53;102210.50;4971459;28;20085;-64
2023/09/04 07:51:46;;;;;;;6.50;2.40;;;;;;;23.50;67.41;102215.09;4971954;28;20478;-64
2023/09/04 07:54:13;;;;;;;8.90;2.22;;;;;;;22.84;67.25;102219.56;4971415;28;20561;-64
2023/09/04 07:56:40;;;;;;;4.15;2.00;;;;;;;23.50;61.59;102220.59;4971502;28;20055;-64
2023/09/04 07:59:09;;;;;;;3.63;1.50;;;;;;;23.65;60.45;102217.63;4971538;28;20078;-64
2023/09/04 08:01:36;;;;;;;9.88;2.10;;;;;;;23.38;60.03;102224.16;4972754;28;20050;-65
2023/09/04 08:04:03;;;;;;;8.90;2.15;;;;;;;23.40;60.87;102227.50;4971451;28;20047;-63
2023/09/04 08:06:29;;;;;;;4.45;2.00;;;;;;;23.79;59.22;102225.88;4973070;28;20454;-64
2023/09/04 08:08:56;;;;;;;4.88;1.75;;;;;;;23.64;58.55;102221.44;4974959;28;20101;-64
2023/09/04 08:11:23;;;;;;;10.20;1.90;;;;;;;23.98;58.27;102220.34;4976129;28;20083;-64
2023/09/04 08:13:50;;;;;;;6.18;1.83;;;;;;;24.35;57.83;102228.06;4975933;28;20042;-65
2023/09/04 08:16:16;;;;;;;6.22;2.00;;;;;;;23.33;58.90;102222.06;4976954;28;20102;-64
2023/09/04 08:18:43;;;;;;;8.02;2.33;;;;;;;24.17;57.26;102217.78;4957908;28;20047;-64
2023/09/04 08:21:09;;;;;;;19.50;10.07;;;;;;;24.42;55.42;102215.19;4975992;28;20451;-64
2023/09/04 08:23:36;;;;;;;11.82;3.63;;;;;;;24.58;54.90;102211.97;4975593;28;20046;-63
2023/09/04 08:26:04;;;;;;;3.97;2.15;;;;;;;24.44;54.33;102215.84;4975343;28;20560;-64
2023/09/04 08:28:30;;;;;;;5.43;1.85;;;;;;;25.04;53.73;102212.81;4974773;28;20054;-64
2023/09/04 08:30:57;;;;;;;3.05;1.33;;;;;;;24.75;52.86;102214.19;4974811;28;20132;-64
2023/09/04 08:33:24;;;;;;;5.68;1.80;;;;;;;25.32;51.21;102213.22;4974239;28;20053;-62
2023/09/04 08:35:51;;;;;;;4.30;1.60;;;;;;;25.21;50.13;102218.63;4973815;28;20046;-63
2023/09/04 08:38:18;;;;;;;2.20;1.33;;;;;;;25.28;48.87;102219.41;4974801;28;20097;-64
2023/09/04 08:40:45;;;;;;;2.90;1.45;;;;;;;25.74;48.33;102205.28;4974331;28;20121;-64
2023/09/04 08:43:15;;;;;;;5.97;1.40;;;;;;;25.61;48.11;102209.00;4974128;28;20046;-63
2023/09/04 08:45:44;;;;;;;4.55;1.40;;;;;;;26.50;46.72;102190.28;4973903;28;20054;-63
2023/09/04 08:48:13;;;;;;;3.42;1.50;;;;;;;27.11;45.63;102184.81;4973749;28;20043;-63
2023/09/04 08:50:40;;;;;;;3.97;1.35;;;;;;;26.76;46.56;102183.63;4973474;28;20053;-62
2023/09/04 08:53:07;;;;;;;108.05;11.10;;;;;;;26.94;46.27;102188.22;4973737;28;20057;-63
2023/09/04 08:55:35;;;;;;;6.45;2.10;;;;;;;26.50;46.91;102187.53;4973435;28;20518;-63
2023/09/04 08:58:03;;;;;;;13.50;2.00;;;;;;;26.34;45.71;102182.66;4972938;28;20051;-63
2023/09/04 09:00:31;;;;;;;11.10;3.78;;;;;;;26.98;45.29;102189.44;4974226;28;20542;-63
2023/09/04 09:02:59;;;;;;;49.95;9.07;;;;;;;27.52;44.00;102197.69;4973057;28;20043;-64
2023/09/04 09:05:29;;;;;;;16.52;4.53;;;;;;;27.52;42.06;102197.69;4973033;28;20050;-64
2023/09/04 09:07:58;;;;;;;9.13;2.95;;;;;;;28.06;41.82;102201.19;4972705;28;20056;-65
2023/09/04 09:10:24;;;;;;;4.22;1.48;;;;;;;27.82;41.53;102205.03;4973873;28;20054;-63
2023/09/04 09:12:51;;;;;;;15.13;4.03;;;;;;;28.24;39.70;102194.66;4973732;28;20050;-64
2023/09/04 09:15:18;;;;;;;11.63;3.35;;;;;;;28.90;39.02;102197.94;4974105;28;20074;-63
2023/09/04 09:17:50;;;;;;;20.70;4.38;;;;;;;29.45;38.28;102204.72;4973366;28;20046;-65
2023/09/04 09:20:32;;;;;;;4.57;1.33;;;;;;;29.64;37.77;102203.41;4974351;28;20066;-65
2023/09/04 09:22:59;;;;;;;3.60;1.60;;;;;;;29.64;37.10;102208.09;4973556;28;20129;-65
2023/09/04 09:25:27;;;;;;;2.10;1.30;;;;;;;30.70;36.50;102203.16;4973780;28;20286;-65
2023/09/04 09:28:02;;;;;;;4.55;3.38;;;;;;;30.45;35.83;102216.69;4973007;28;20046;-64
2023/09/04 09:30:37;;;;;;;7.20;1.90;;;;;;;30.63;35.26;102198.94;4974157;28;20059;-65
2023/09/04 09:33:12;;;;;;;3.47;2.42;;;;;;;30.66;35.52;102210.31;4973231;28;20046;-65
2023/09/04 09:35:42;;;;;;;4.20;1.48;;;;;;;30.05;35.81;102204.00;4972965;28;20050;-65
2023/09/04 09:38:09;;;;;;;6.15;2.50;;;;;;;31.17;34.10;102199.78;4973341;28;20042;-63
2023/09/04 09:40:36;;;;;;;5.85;1.70;;;;;;;31.72;34.11;102198.56;4973042;28;20129;-64
2023/09/04 09:43:03;;;;;;;3.17;1.38;;;;;;;31.61;34.05;102187.66;4955595;28;20526;-59
2023/09/04 09:45:34;;;;;;;4.20;1.42;;;;;;;32.33;32.95;102186.94;4972292;28;20147;-59
2023/09/04 09:48:07;;;;;;;4.47;1.58;;;;;;;32.43;32.46;102183.38;4972494;28;20129;-58
2023/09/04 09:50:40;;;;;;;2.40;1.52;;;;;;;33.69;30.97;102182.94;4972313;28;20054;-58
2023/09/04 09:53:06;;;;;;;24.73;5.72;;;;;;;32.76;31.65;102184.03;4972473;28;20101;-59
2023/09/04 09:55:35;;;;;;;3.05;1.65;;;;;;;33.49;31.39;102183.81;4954958;28;20400;-60
2023/09/04 09:58:04;;;;;;;7.00;1.58;;;;;;;33.40;31.41;102191.03;4971975;28;20102;-59
2023/09/04 10:00:31;;;;;;;3.20;1.58;;;;;;;33.50;30.57;102186.31;4972266;28;20055;-59
2023/09/04 10:02:58;;;;;;;2.15;1.48;;;;;;;33.20;30.56;102189.09;4971892;28;20043;-61
2023/09/04 10:05:28;;;;;;;2.75;1.27;;;;;;;32.57;30.95;102183.72;4971710;28;20098;-59
2023/09/04 10:08:00;;;;;;;1.75;1.30;;;;;;;32.55;31.65;102180.38;4971866;28;20046;-58
2023/09/04 10:10:36;;;;;;;2.75;1.38;;;;;;;32.79;31.62;102186.28;4971888;28;20068;-59
2023/09/04 10:13:26;;;;;;;5.70;1.45;;;;;;;32.11;31.67;102181.59;4971797;28;20070;-58
2023/09/04 10:15:59;;;;;;;2.30;1.30;;;;;;;32.65;31.50;102178.47;4971757;28;20407;-60
2023/09/04 10:18:30;;;;;;;2.78;1.20;;;;;;;32.22;31.42;102192.75;4971624;28;20302;-60
2023/09/04 10:20:58;;;;;;;15.10;12.20;;;;;;;32.04;31.83;102183.78;4971390;28;20482;-59
2023/09/04 10:23:34;;;;;;;2.58;1.50;;;;;;;30.48;33.62;102180.19;4972071;28;20047;-61
2023/09/04 10:26:07;;;;;;;2.35;1.15;;;;;;;29.50;35.68;102186.31;4971412;28;20054;-60
2023/09/04 10:28:40;;;;;;;7.47;2.67;;;;;;;30.95;33.85;102179.56;4971264;28;20494;-58
2023/09/04 10:31:10;;;;;;;9.32;1.50;;;;;;;29.87;34.92;102177.44;4970879;28;20050;-59
2023/09/04 10:33:38;;;;;;;12.25;2.45;;;;;;;30.12;35.01;102182.53;4954435;28;20054;-59
2023/09/04 10:36:05;;;;;;;3.72;1.42;;;;;;;30.64;34.08;102176.53;4971632;28;20046;-58
2023/09/04 10:38:34;;;;;;;4.75;2.08;;;;;;;30.98;33.23;102184.59;4971483;28;20475;-58
2023/09/04 10:41:03;;;;;;;5.05;1.60;;;;;;;28.59;35.54;102168.91;4971434;28;20101;-60
2023/09/04 10:43:39;;;;;;;3.15;1.27;;;;;;;28.59;36.67;102174.44;4971269;28;20065;-59
2023/09/04 10:46:11;;;;;;;6.93;1.98;;;;;;;28.07;37.56;102161.47;4971395;28;20422;-61
2023/09/04 10:48:45;;;;;;;6.72;1.80;;;;;;;28.98;36.40;102164.44;4971727;28;20061;-60
2023/09/04 10:51:24;;;;;;;18.20;2.30;;;;;;;29.29;35.58;102162.19;4971286;28;20054;-59
2023/09/04 10:53:52;;;;;;;8.03;2.27;;;;;;;28.33;36.76;102160.09;4971274;28;20053;-60
2023/09/04 10:56:18;;;;;;;7.55;2.47;;;;;;;28.94;36.33;102154.06;4971966;28;20055;-59
2023/09/04 10:59:05;;;;;;;5.78;1.60;;;;;;;28.61;35.84;102152.94;4971445;28;20047;-59
2023/09/04 11:01:36;;;;;;;5.32;1.38;;;;;;;27.05;38.58;102163.72;4971271;28;20101;-60
2023/09/04 11:04:07;;;;;;;2.97;1.63;;;;;;;27.85;37.53;102152.97;4971214;28;20109;-59
2023/09/04 11:06:40;;;;;;;2.83;1.80;;;;;;;27.73;38.44;102153.00;4971376;28;20059;-60
2023/09/04 11:09:11;;;;;;;4.68;1.95;;;;;;;26.37;39.62;102146.44;4971301;28;20062;-58
2023/09/04 11:11:38;;;;;;;21.23;3.45;;;;;;;26.40;41.15;102148.72;4971217;28;20047;-59
2023/09/04 11:14:06;;;;;;;4.00;1.70;;;;;;;26.97;40.18;102148.38;4969870;28;20491;-65
2023/09/04 11:16:39;;;;;;;3.97;2.00;;;;;;;27.03;40.47;102148.25;4972046;28;20185;-65
2023/09/04 11:19:15;;;;;;;3.83;2.13;;;;;;;26.92;39.90;102140.78;4970911;28;20046;-64
2023/09/04 11:21:44;;;;;;;4.75;2.20;;;;;;;27.19;39.34;102143.97;4971525;28;20049;-65
2023/09/04 11:24:11;;;;;;;9.18;2.42;;;;;;;26.53;39.88;102145.78;4971592;28;20074;-65
2023/09/04 11:26:38;;;;;;;4.88;2.55;;;;;;;26.19;41.56;102140.97;4971961;28;20051;-65